createdAt,value
2022-09-12T00:00:39.496Z,98885.78
2022-09-12T00:05:32.822Z,98878.41
2022-09-12T00:10:24.569Z,98872.41
2022-09-12T00:15:16.308Z,98864.22
2022-09-12T00:20:09.463Z,98857.41
2022-09-12T00:25:01.164Z,98859.88
2022-09-12T00:29:52.823Z,98857.44
2022-09-12T00:34:44.602Z,98852.25
2022-09-12T00:39:36.157Z,98865.66
2022-09-12T00:44:27.983Z,98865.38
2022-09-12T00:49:42.950Z,98855.81
2022-09-12T00:54:42.843Z,98858.28
2022-09-12T00:59:57.531Z,98852.28
2022-09-12T01:04:51.381Z,98830.66
2022-09-12T01:09:45.382Z,98823.28
2022-09-12T01:14:38.425Z,98826.56
2022-09-12T01:19:54.729Z,98813.44
2022-09-12T01:24:53.009Z,98800.59
2022-09-12T01:30:13.614Z,98798.13
2022-09-12T01:35:10.841Z,98806.88
2022-09-12T01:40:31.708Z,98805.25
2022-09-12T01:45:33.905Z,98800.34
2022-09-12T01:50:31.153Z,98809.88
2022-09-12T01:55:28.764Z,98816.16
2022-09-12T02:00:20.597Z,98817.56
2022-09-12T02:05:20.459Z,98813.44
2022-09-12T02:10:18.216Z,98805.78
2022-09-12T02:15:12.226Z,98812.34
2022-09-12T02:20:25.998Z,98804.16
2022-09-12T02:25:29.346Z,98792.69
2022-09-12T02:30:22.220Z,98796.22
2022-09-12T02:35:47.122Z,98801.69
2022-09-12T02:40:39.086Z,98786.91
2022-09-12T02:45:34.373Z,98774.38
2022-09-12T02:50:26.925Z,98779.00
2022-09-12T02:55:18.958Z,98772.16
2022-09-12T03:00:11.323Z,98778.47
2022-09-12T03:05:09.116Z,98773.53
2022-09-12T03:10:03.773Z,98771.63
2022-09-12T03:15:38.407Z,98770.81
2022-09-12T03:20:39.353Z,98770.81
2022-09-12T03:25:34.371Z,98766.16
2022-09-12T03:30:26.987Z,98761.53
2022-09-12T03:35:23.128Z,98768.06
2022-09-12T03:40:15.687Z,98751.69
2022-09-12T03:45:08.806Z,98749.47
2022-09-12T03:50:00.598Z,98744.84
2022-09-12T03:54:52.263Z,98738.56
2022-09-12T03:59:43.972Z,98742.38
2022-09-12T04:04:35.646Z,98736.91
2022-09-12T04:09:27.342Z,98735.84
2022-09-12T04:14:18.985Z,98735.00
2022-09-12T04:19:11.884Z,98748.66
2022-09-12T04:24:03.797Z,98749.75
2022-09-12T04:28:57.765Z,98752.22
2022-09-12T04:33:57.326Z,98748.41
2022-09-12T04:38:49.011Z,98741.28
2022-09-12T04:43:41.132Z,98757.94
2022-09-12T04:48:32.816Z,98757.66
2022-09-12T04:53:24.506Z,98757.41
2022-09-12T04:58:16.333Z,98752.78
2022-09-12T05:03:08.501Z,98744.56
2022-09-12T05:08:00.276Z,98747.56
2022-09-12T05:12:52.857Z,98748.69
2022-09-12T05:17:44.697Z,98746.75
2022-09-12T05:22:36.329Z,98745.09
2022-09-12T05:27:27.968Z,98747.56
2022-09-12T05:32:19.734Z,98747.56
2022-09-12T05:37:11.431Z,98754.94
2022-09-12T05:42:03.415Z,98768.06
2022-09-12T05:46:55.052Z,98762.59
2022-09-12T05:51:46.851Z,98762.31
2022-09-12T05:56:41.343Z,98744.03
2022-09-12T06:01:35.526Z,98757.41
2022-09-12T06:06:29.145Z,98745.91
2022-09-12T06:11:24.949Z,98756.03
2022-09-12T06:16:22.550Z,98762.59
2022-09-12T06:21:14.705Z,98768.59
2022-09-12T06:26:08.618Z,98779.00
2022-09-12T06:31:06.151Z,98766.97
2022-09-12T06:36:06.900Z,98765.34
2022-09-12T06:41:00.710Z,98778.19
2022-09-12T06:45:52.315Z,98770.50
2022-09-12T06:50:44.223Z,98766.41
2022-09-12T06:55:35.935Z,98766.97
2022-09-12T07:00:27.807Z,98779.81
2022-09-12T07:05:19.519Z,98767.47
2022-09-12T07:10:12.499Z,98760.34
2022-09-12T07:15:04.317Z,98760.56
2022-09-12T07:19:56.280Z,98759.16
2022-09-12T07:24:47.969Z,98761.00
2022-09-12T07:29:39.703Z,98766.41
2022-09-12T07:34:31.905Z,98761.91
2022-09-12T07:39:23.582Z,98767.81
2022-09-12T07:44:15.214Z,98770.78
2022-09-12T07:49:08.578Z,98767.16
2022-09-12T07:54:00.377Z,98771.22
2022-09-12T07:58:52.120Z,98764.31
2022-09-12T08:03:47.363Z,98760.59
2022-09-12T08:08:39.173Z,98766.09
2022-09-12T08:13:30.873Z,98771.75
2022-09-12T08:18:22.621Z,98771.41
2022-09-12T08:23:14.260Z,98767.88
2022-09-12T08:28:06.386Z,98760.81
2022-09-12T08:32:58.413Z,98754.22
2022-09-12T08:37:50.085Z,98754.09
2022-09-12T08:43:00.499Z,98756.69
2022-09-12T08:47:52.788Z,98760.66
2022-09-12T08:52:59.705Z,98759.94
2022-09-12T08:57:52.125Z,98762.75
2022-09-12T09:03:01.802Z,98770.13
2022-09-12T09:08:22.818Z,98762.53
2022-09-12T09:13:43.365Z,98773.22
2022-09-12T09:18:36.034Z,98769.28
2022-09-12T09:23:34.117Z,98778.28
2022-09-12T09:28:29.248Z,98777.53
2022-09-12T09:33:28.150Z,98784.28
2022-09-12T09:38:41.088Z,98771.06
2022-09-12T09:43:32.845Z,98785.63
2022-09-12T09:48:47.368Z,98775.66
2022-09-12T09:53:56.595Z,98780.06
2022-09-12T09:58:48.397Z,98780.88
2022-09-12T10:03:40.624Z,98768.38
2022-09-12T10:08:35.361Z,98774.69
2022-09-12T10:13:42.678Z,98764.84
2022-09-12T10:18:37.726Z,98754.59
2022-09-12T10:23:37.790Z,98765.75
2022-09-12T10:28:37.616Z,98769.13
2022-09-12T10:33:30.021Z,98764.66
2022-09-12T10:38:32.265Z,98763.19
2022-09-12T10:43:29.656Z,98760.47
2022-09-12T10:48:31.972Z,98769.75
2022-09-12T10:53:25.161Z,98779.19
2022-09-12T10:58:32.234Z,98779.19
2022-09-12T11:03:49.163Z,98772.00
2022-09-12T11:08:53.492Z,98762.59
2022-09-12T11:14:06.823Z,98749.25
2022-09-12T11:19:21.677Z,98765.84
2022-09-12T11:24:25.714Z,98766.84
2022-09-12T11:29:29.273Z,98768.00
2022-09-12T11:34:40.015Z,98771.75
2022-09-12T11:39:40.063Z,98782.81
2022-09-12T11:44:40.665Z,98789.94
2022-09-12T11:49:38.584Z,98784.06
2022-09-12T11:54:39.260Z,98777.66
2022-09-12T11:59:42.759Z,98782.34
2022-09-12T12:04:44.632Z,98779.19
2022-09-12T12:09:45.529Z,98775.53
2022-09-12T12:14:47.286Z,98786.28
2022-09-12T12:19:39.028Z,98779.78
2022-09-12T12:24:30.797Z,98782.97
2022-09-12T12:29:22.356Z,98777.44
2022-09-12T12:34:35.944Z,98775.94
2022-09-12T12:39:33.653Z,98784.16
2022-09-12T12:44:44.092Z,98776.97
2022-09-12T12:49:36.096Z,98773.44
2022-09-12T12:54:48.299Z,98781.31
2022-09-12T12:59:52.004Z,98787.53
2022-09-12T13:04:45.260Z,98790.03
2022-09-12T13:09:49.959Z,98782.94
2022-09-12T13:14:51.903Z,98776.59
2022-09-12T13:19:44.221Z,98777.03
2022-09-12T13:24:52.375Z,98782.69
2022-09-12T13:29:44.112Z,98783.63
2022-09-12T13:34:46.360Z,98782.19
2022-09-12T13:39:44.217Z,98776.88
2022-09-12T13:44:44.669Z,98782.63
2022-09-12T13:49:39.465Z,98778.09
2022-09-12T13:54:32.638Z,98783.41
2022-09-12T13:59:24.963Z,98768.53
2022-09-12T14:04:40.751Z,98776.28
2022-09-12T14:09:38.570Z,98769.75
2022-09-12T14:14:36.695Z,98771.47
2022-09-12T14:19:29.332Z,98775.03
2022-09-12T14:24:23.467Z,98776.88
2022-09-12T14:29:16.885Z,98784.84
2022-09-12T14:34:17.225Z,98780.16
2022-09-12T14:39:30.787Z,98779.94
2022-09-12T14:44:27.782Z,98777.41
2022-09-12T14:49:35.134Z,98766.69
2022-09-12T14:54:30.278Z,98776.56
2022-09-12T14:59:40.479Z,98769.03
2022-09-12T15:04:39.551Z,98762.41
2022-09-12T15:09:31.250Z,98752.63
2022-09-12T15:14:22.869Z,98763.84
2022-09-12T15:19:14.544Z,98762.41
2022-09-12T15:24:06.478Z,98769.84
2022-09-12T15:33:49.830Z,98759.13
2022-09-12T15:38:41.598Z,98759.84
2022-09-12T15:43:33.222Z,98752.41
2022-09-12T15:48:24.862Z,98770.75
2022-09-12T15:53:17.317Z,98763.03
2022-09-12T15:58:09.329Z,98751.09
2022-09-12T16:03:01.181Z,98756.59
2022-09-12T16:07:54.226Z,98758.03
2022-09-12T16:12:46.310Z,98768.31
2022-09-12T16:17:37.923Z,98756.91
2022-09-12T16:22:29.809Z,98752.22
2022-09-12T16:27:21.463Z,98752.22
2022-09-12T16:32:13.244Z,98747.00
2022-09-12T16:37:05.647Z,98739.34
2022-09-12T16:41:57.458Z,98749.25
2022-09-12T16:46:50.902Z,98747.63
2022-09-12T16:51:45.052Z,98751.78
2022-09-12T16:56:36.807Z,98742.53
2022-09-12T17:01:28.597Z,98740.38
2022-09-12T17:06:20.524Z,98748.13
2022-09-12T17:11:15.165Z,98757.28
2022-09-12T17:16:08.669Z,98757.19
2022-09-12T17:21:00.394Z,98763.19
2022-09-12T17:25:52.499Z,98773.03
2022-09-12T17:30:44.660Z,98767.97
2022-09-12T17:35:37.845Z,98765.78
2022-09-12T17:40:55.793Z,98770.94
2022-09-12T17:45:41.872Z,98782.97
2022-09-12T17:50:40.623Z,98784.91
2022-09-12T17:55:36.095Z,98793.06
2022-09-12T18:00:48.262Z,98789.91
2022-09-12T18:05:52.867Z,98792.25
2022-09-12T18:10:45.050Z,98806.91
2022-09-12T18:15:37.081Z,98814.72
2022-09-12T18:20:29.054Z,98810.13
2022-09-12T18:25:20.801Z,98812.16
2022-09-12T18:30:22.130Z,98821.84
2022-09-12T18:35:14.382Z,98834.81
2022-09-12T18:40:06.302Z,98851.09
2022-09-12T18:44:58.047Z,98842.63
2022-09-12T18:49:49.690Z,98850.88
2022-09-12T18:54:42.137Z,98847.06
2022-09-12T18:59:33.863Z,98851.47
2022-09-12T19:04:25.692Z,98846.84
2022-09-12T19:09:20.721Z,98851.66
2022-09-12T19:14:12.516Z,98856.97
2022-09-12T19:19:04.355Z,98860.84
2022-09-12T19:23:58.921Z,98875.97
2022-09-12T19:28:50.980Z,98877.41
2022-09-12T19:33:42.751Z,98878.88
2022-09-12T19:38:35.070Z,98893.13
2022-09-12T19:43:27.543Z,98906.31
2022-09-12T19:48:20.361Z,98896.44
2022-09-12T19:53:12.258Z,98896.47
2022-09-12T19:58:07.757Z,98888.84
2022-09-12T20:03:00.021Z,98897.09
2022-09-12T20:07:53.293Z,98895.47
2022-09-12T20:12:45.128Z,98906.41
2022-09-12T20:17:37.016Z,98910.81
2022-09-12T20:22:28.832Z,98916.00
2022-09-12T20:27:20.821Z,98919.28
2022-09-12T20:32:12.433Z,98930.75
2022-09-12T20:37:04.289Z,98924.50
2022-09-12T20:41:56.078Z,98934.63
2022-09-12T20:46:47.808Z,98933.78
2022-09-12T20:51:39.537Z,98943.66
2022-09-12T20:56:33.621Z,98945.81
2022-09-12T21:01:28.540Z,98943.63
2022-09-12T21:06:21.475Z,98946.63
2022-09-12T21:11:14.802Z,98932.69
2022-09-12T21:16:11.299Z,98940.31
2022-09-12T21:21:05.454Z,98929.09
2022-09-12T21:25:59.728Z,98923.34
2022-09-12T21:30:52.680Z,98929.63
2022-09-12T21:35:45.403Z,98926.34
2022-09-12T21:40:38.213Z,98932.63
2022-09-12T21:45:30.526Z,98927.69
2022-09-12T21:50:22.188Z,98937.50
2022-09-12T21:55:13.969Z,98932.25
2022-09-12T22:00:08.086Z,98935.00
2022-09-12T22:04:59.828Z,98938.78
2022-09-12T22:09:52.237Z,98945.88
2022-09-12T22:14:44.857Z,98945.59
2022-09-12T22:19:37.241Z,98957.06
2022-09-12T22:24:29.139Z,98947.72
2022-09-12T22:29:21.957Z,98957.31
2022-09-12T22:34:14.593Z,98956.44
2022-09-12T22:39:07.634Z,98957.78
2022-09-12T22:43:59.863Z,98950.63
2022-09-12T22:48:52.359Z,98961.81
2022-09-12T22:53:44.285Z,98955.19
2022-09-12T22:58:41.400Z,98965.50
2022-09-12T23:03:33.260Z,98964.84
2022-09-12T23:08:29.535Z,98971.63
2022-09-12T23:13:21.341Z,98978.09
2022-09-12T23:18:12.939Z,98974.47
2022-09-12T23:23:04.589Z,98991.94
2022-09-12T23:27:56.301Z,98984.84
2022-09-12T23:32:50.689Z,98999.00
2022-09-12T23:37:42.328Z,98986.91
2022-09-12T23:42:34.000Z,98978.66
2022-09-12T23:47:25.649Z,98973.69
2022-09-12T23:52:17.289Z,98981.59
2022-09-12T23:57:08.931Z,98971.13
